sensor_id;sensor_type;location;lat;lon;timestamp;P1;durP1;ratioP1;P2;durP2;ratioP2
4603;SDS011;2314;48.272;11.562;2022-09-30T00:00:36;147.27;;;21.67;;
4603;SDS011;2314;48.272;11.562;2022-09-30T00:03:05;152.30;;;22.73;;
4603;SDS011;2314;48.272;11.562;2022-09-30T00:05:32;144.30;;;20.00;;
4603;SDS011;2314;48.272;11.562;2022-09-30T00:07:59;151.17;;;22.40;;
4603;SDS011;2314;48.272;11.562;2022-09-30T00:10:26;147.00;;;21.60;;
4603;SDS011;2314;48.272;11.562;2022-09-30T00:12:53;147.50;;;20.67;;
4603;SDS011;2314;48.272;11.562;2022-09-30T00:15:22;142.30;;;19.70;;
4603;SDS011;2314;48.272;11.562;2022-09-30T00:17:49;140.43;;;19.13;;
4603;SDS011;2314;48.272;11.562;2022-09-30T00:20:18;142.30;;;19.77;;
4603;SDS011;2314;48.272;11.562;2022-09-30T00:22:45;146.10;;;18.60;;
4603;SDS011;2314;48.272;11.562;2022-09-30T00:25:12;139.63;;;17.17;;
4603;SDS011;2314;48.272;11.562;2022-09-30T00:27:40;146.70;;;19.40;;
4603;SDS011;2314;48.272;11.562;2022-09-30T00:30:08;143.97;;;20.03;;
4603;SDS011;2314;48.272;11.562;2022-09-30T00:32:35;146.00;;;17.73;;
4603;SDS011;2314;48.272;11.562;2022-09-30T00:35:03;140.97;;;17.37;;
4603;SDS011;2314;48.272;11.562;2022-09-30T00:37:32;140.57;;;18.17;;
4603;SDS011;2314;48.272;11.562;2022-09-30T00:39:59;142.27;;;18.40;;
4603;SDS011;2314;48.272;11.562;2022-09-30T00:42:26;141.67;;;18.40;;
4603;SDS011;2314;48.272;11.562;2022-09-30T00:44:55;140.50;;;16.93;;
4603;SDS011;2314;48.272;11.562;2022-09-30T00:47:34;138.17;;;17.50;;
4603;SDS011;2314;48.272;11.562;2022-09-30T00:50:16;141.90;;;18.63;;
4603;SDS011;2314;48.272;11.562;2022-09-30T00:52:57;144.07;;;18.00;;
4603;SDS011;2314;48.272;11.562;2022-09-30T00:55:43;141.70;;;17.50;;
4603;SDS011;2314;48.272;11.562;2022-09-30T00:58:15;145.60;;;18.20;;
4603;SDS011;2314;48.272;11.562;2022-09-30T01:00:49;143.33;;;17.70;;
4603;SDS011;2314;48.272;11.562;2022-09-30T01:03:17;141.63;;;18.37;;
4603;SDS011;2314;48.272;11.562;2022-09-30T01:05:47;141.27;;;18.47;;
4603;SDS011;2314;48.272;11.562;2022-09-30T01:08:17;145.53;;;19.67;;
4603;SDS011;2314;48.272;11.562;2022-09-30T01:10:45;141.00;;;18.27;;
4603;SDS011;2314;48.272;11.562;2022-09-30T01:13:13;141.20;;;19.03;;
4603;SDS011;2314;48.272;11.562;2022-09-30T01:15:49;141.40;;;19.40;;
4603;SDS011;2314;48.272;11.562;2022-09-30T01:18:38;142.60;;;18.90;;
4603;SDS011;2314;48.272;11.562;2022-09-30T01:21:22;143.17;;;18.80;;
4603;SDS011;2314;48.272;11.562;2022-09-30T01:24:26;144.70;;;20.00;;
4603;SDS011;2314;48.272;11.562;2022-09-30T01:27:13;143.97;;;19.70;;
4603;SDS011;2314;48.272;11.562;2022-09-30T01:32:41;143.10;;;18.07;;
4603;SDS011;2314;48.272;11.562;2022-09-30T01:35:28;143.07;;;19.10;;
4603;SDS011;2314;48.272;11.562;2022-09-30T01:38:08;146.97;;;19.40;;
4603;SDS011;2314;48.272;11.562;2022-09-30T01:40:45;148.97;;;22.50;;
4603;SDS011;2314;48.272;11.562;2022-09-30T01:43:17;145.10;;;19.40;;
4603;SDS011;2314;48.272;11.562;2022-09-30T01:45:56;141.53;;;20.00;;
4603;SDS011;2314;48.272;11.562;2022-09-30T01:48:31;146.23;;;21.20;;
4603;SDS011;2314;48.272;11.562;2022-09-30T01:51:06;144.13;;;19.77;;
4603;SDS011;2314;48.272;11.562;2022-09-30T01:53:38;140.93;;;19.30;;
4603;SDS011;2314;48.272;11.562;2022-09-30T01:56:10;144.10;;;20.77;;
4603;SDS011;2314;48.272;11.562;2022-09-30T01:58:46;147.17;;;20.77;;
4603;SDS011;2314;48.272;11.562;2022-09-30T02:01:20;144.17;;;19.23;;
4603;SDS011;2314;48.272;11.562;2022-09-30T02:03:54;145.87;;;21.53;;
4603;SDS011;2314;48.272;11.562;2022-09-30T02:06:25;144.50;;;19.50;;
4603;SDS011;2314;48.272;11.562;2022-09-30T02:08:59;143.57;;;19.47;;
4603;SDS011;2314;48.272;11.562;2022-09-30T02:11:31;147.63;;;19.60;;
4603;SDS011;2314;48.272;11.562;2022-09-30T02:14:01;145.87;;;20.17;;
4603;SDS011;2314;48.272;11.562;2022-09-30T02:16:36;150.60;;;21.53;;
4603;SDS011;2314;48.272;11.562;2022-09-30T02:19:10;152.70;;;20.20;;
4603;SDS011;2314;48.272;11.562;2022-09-30T02:21:43;147.40;;;21.77;;
4603;SDS011;2314;48.272;11.562;2022-09-30T02:24:16;149.80;;;21.17;;
4603;SDS011;2314;48.272;11.562;2022-09-30T02:26:49;147.70;;;20.67;;
4603;SDS011;2314;48.272;11.562;2022-09-30T02:29:21;145.30;;;20.10;;
4603;SDS011;2314;48.272;11.562;2022-09-30T02:31:53;144.83;;;19.87;;
4603;SDS011;2314;48.272;11.562;2022-09-30T02:34:28;148.03;;;20.03;;
4603;SDS011;2314;48.272;11.562;2022-09-30T02:37:03;150.77;;;22.20;;
4603;SDS011;2314;48.272;11.562;2022-09-30T02:39:36;145.20;;;20.57;;
4603;SDS011;2314;48.272;11.562;2022-09-30T02:42:10;145.67;;;20.73;;
4603;SDS011;2314;48.272;11.562;2022-09-30T02:44:43;146.43;;;21.10;;
4603;SDS011;2314;48.272;11.562;2022-09-30T02:47:11;142.77;;;19.20;;
4603;SDS011;2314;48.272;11.562;2022-09-30T02:49:45;144.50;;;20.33;;
4603;SDS011;2314;48.272;11.562;2022-09-30T02:52:20;146.37;;;20.53;;
4603;SDS011;2314;48.272;11.562;2022-09-30T02:54:56;143.47;;;19.70;;
4603;SDS011;2314;48.272;11.562;2022-09-30T02:57:35;150.63;;;21.27;;
4603;SDS011;2314;48.272;11.562;2022-09-30T03:00:09;143.80;;;21.33;;
4603;SDS011;2314;48.272;11.562;2022-09-30T03:02:37;145.70;;;21.23;;
4603;SDS011;2314;48.272;11.562;2022-09-30T03:05:07;155.17;;;20.80;;
4603;SDS011;2314;48.272;11.562;2022-09-30T03:07:34;141.13;;;19.87;;
4603;SDS011;2314;48.272;11.562;2022-09-30T03:10:05;148.70;;;20.87;;
4603;SDS011;2314;48.272;11.562;2022-09-30T03:12:40;145.10;;;20.27;;
4603;SDS011;2314;48.272;11.562;2022-09-30T03:15:28;143.87;;;20.37;;
4603;SDS011;2314;48.272;11.562;2022-09-30T03:18:12;142.77;;;20.00;;
4603;SDS011;2314;48.272;11.562;2022-09-30T03:21:05;142.43;;;19.43;;
4603;SDS011;2314;48.272;11.562;2022-09-30T03:23:52;141.70;;;18.93;;
4603;SDS011;2314;48.272;11.562;2022-09-30T03:26:36;148.50;;;19.00;;
4603;SDS011;2314;48.272;11.562;2022-09-30T03:29:12;145.87;;;19.37;;
4603;SDS011;2314;48.272;11.562;2022-09-30T03:31:48;145.03;;;19.70;;
4603;SDS011;2314;48.272;11.562;2022-09-30T03:34:28;140.37;;;18.97;;
4603;SDS011;2314;48.272;11.562;2022-09-30T03:37:04;139.90;;;18.83;;
4603;SDS011;2314;48.272;11.562;2022-09-30T03:39:45;147.43;;;18.23;;
4603;SDS011;2314;48.272;11.562;2022-09-30T03:42:21;144.37;;;20.30;;
4603;SDS011;2314;48.272;11.562;2022-09-30T03:44:55;143.40;;;18.67;;
4603;SDS011;2314;48.272;11.562;2022-09-30T03:47:29;142.63;;;18.93;;
4603;SDS011;2314;48.272;11.562;2022-09-30T03:49:59;143.70;;;20.07;;
4603;SDS011;2314;48.272;11.562;2022-09-30T03:52:31;142.77;;;18.57;;
4603;SDS011;2314;48.272;11.562;2022-09-30T03:55:03;139.37;;;18.00;;
4603;SDS011;2314;48.272;11.562;2022-09-30T03:57:35;140.67;;;17.90;;
4603;SDS011;2314;48.272;11.562;2022-09-30T04:00:04;142.40;;;17.67;;
4603;SDS011;2314;48.272;11.562;2022-09-30T04:02:32;142.87;;;18.10;;
4603;SDS011;2314;48.272;11.562;2022-09-30T04:05:00;141.27;;;17.77;;
4603;SDS011;2314;48.272;11.562;2022-09-30T04:07:27;139.77;;;17.40;;
4603;SDS011;2314;48.272;11.562;2022-09-30T04:09:56;146.47;;;19.00;;
4603;SDS011;2314;48.272;11.562;2022-09-30T04:12:23;142.37;;;18.23;;
4603;SDS011;2314;48.272;11.562;2022-09-30T04:14:50;139.53;;;18.10;;
4603;SDS011;2314;48.272;11.562;2022-09-30T04:17:17;142.97;;;18.20;;
4603;SDS011;2314;48.272;11.562;2022-09-30T04:19:44;141.03;;;18.40;;
4603;SDS011;2314;48.272;11.562;2022-09-30T04:22:11;145.87;;;18.47;;
4603;SDS011;2314;48.272;11.562;2022-09-30T04:24:38;146.20;;;19.30;;
4603;SDS011;2314;48.272;11.562;2022-09-30T04:27:06;145.50;;;20.83;;
4603;SDS011;2314;48.272;11.562;2022-09-30T04:29:33;142.27;;;19.17;;
4603;SDS011;2314;48.272;11.562;2022-09-30T04:32:00;142.20;;;18.40;;
4603;SDS011;2314;48.272;11.562;2022-09-30T04:34:27;141.40;;;18.83;;
4603;SDS011;2314;48.272;11.562;2022-09-30T04:36:54;141.57;;;18.70;;
4603;SDS011;2314;48.272;11.562;2022-09-30T04:39:21;146.17;;;20.00;;
4603;SDS011;2314;48.272;11.562;2022-09-30T04:41:48;144.47;;;20.53;;
4603;SDS011;2314;48.272;11.562;2022-09-30T04:44:19;142.57;;;19.27;;
4603;SDS011;2314;48.272;11.562;2022-09-30T04:46:46;141.40;;;18.20;;
4603;SDS011;2314;48.272;11.562;2022-09-30T04:49:14;154.10;;;20.47;;
4603;SDS011;2314;48.272;11.562;2022-09-30T04:51:41;144.27;;;20.03;;
4603;SDS011;2314;48.272;11.562;2022-09-30T04:54:10;145.40;;;19.33;;
4603;SDS011;2314;48.272;11.562;2022-09-30T04:56:38;144.37;;;19.87;;
4603;SDS011;2314;48.272;11.562;2022-09-30T04:59:05;142.83;;;17.47;;
4603;SDS011;2314;48.272;11.562;2022-09-30T05:01:33;140.27;;;17.43;;
4603;SDS011;2314;48.272;11.562;2022-09-30T05:04:00;139.77;;;17.30;;
4603;SDS011;2314;48.272;11.562;2022-09-30T05:06:28;144.97;;;19.03;;
4603;SDS011;2314;48.272;11.562;2022-09-30T05:08:55;140.00;;;16.73;;
4603;SDS011;2314;48.272;11.562;2022-09-30T05:11:22;141.23;;;18.00;;
4603;SDS011;2314;48.272;11.562;2022-09-30T05:13:49;141.27;;;17.83;;
4603;SDS011;2314;48.272;11.562;2022-09-30T05:16:17;144.20;;;18.57;;
4603;SDS011;2314;48.272;11.562;2022-09-30T05:18:47;144.37;;;19.67;;
4603;SDS011;2314;48.272;11.562;2022-09-30T05:21:15;142.47;;;18.30;;
4603;SDS011;2314;48.272;11.562;2022-09-30T05:23:44;144.40;;;18.90;;
4603;SDS011;2314;48.272;11.562;2022-09-30T05:26:12;148.20;;;20.17;;
4603;SDS011;2314;48.272;11.562;2022-09-30T05:28:39;145.37;;;18.47;;
4603;SDS011;2314;48.272;11.562;2022-09-30T05:31:07;142.83;;;18.07;;
4603;SDS011;2314;48.272;11.562;2022-09-30T05:33:34;144.87;;;17.90;;
4603;SDS011;2314;48.272;11.562;2022-09-30T05:36:03;139.47;;;16.73;;
4603;SDS011;2314;48.272;11.562;2022-09-30T05:38:32;146.70;;;17.40;;
4603;SDS011;2314;48.272;11.562;2022-09-30T05:41:04;142.53;;;18.17;;
4603;SDS011;2314;48.272;11.562;2022-09-30T05:43:35;144.07;;;19.00;;
4603;SDS011;2314;48.272;11.562;2022-09-30T05:46:03;144.77;;;18.87;;
4603;SDS011;2314;48.272;11.562;2022-09-30T05:48:31;149.00;;;19.83;;
4603;SDS011;2314;48.272;11.562;2022-09-30T05:50:58;141.93;;;17.80;;
4603;SDS011;2314;48.272;11.562;2022-09-30T05:53:28;143.90;;;18.30;;
4603;SDS011;2314;48.272;11.562;2022-09-30T05:55:56;144.07;;;18.07;;
4603;SDS011;2314;48.272;11.562;2022-09-30T05:58:24;142.37;;;17.57;;
4603;SDS011;2314;48.272;11.562;2022-09-30T06:00:51;145.07;;;18.80;;
4603;SDS011;2314;48.272;11.562;2022-09-30T06:03:18;145.73;;;18.47;;
4603;SDS011;2314;48.272;11.562;2022-09-30T06:05:45;143.47;;;19.40;;
4603;SDS011;2314;48.272;11.562;2022-09-30T06:08:13;144.73;;;18.47;;
4603;SDS011;2314;48.272;11.562;2022-09-30T06:10:42;147.37;;;20.10;;
4603;SDS011;2314;48.272;11.562;2022-09-30T06:13:10;147.73;;;20.30;;
4603;SDS011;2314;48.272;11.562;2022-09-30T06:15:37;139.77;;;17.33;;
4603;SDS011;2314;48.272;11.562;2022-09-30T06:18:05;152.20;;;18.13;;
4603;SDS011;2314;48.272;11.562;2022-09-30T06:20:33;150.07;;;19.00;;
4603;SDS011;2314;48.272;11.562;2022-09-30T06:23:00;140.30;;;18.20;;
4603;SDS011;2314;48.272;11.562;2022-09-30T06:25:28;144.40;;;19.20;;
4603;SDS011;2314;48.272;11.562;2022-09-30T06:27:57;140.17;;;18.07;;
4603;SDS011;2314;48.272;11.562;2022-09-30T06:30:25;141.57;;;18.40;;
4603;SDS011;2314;48.272;11.562;2022-09-30T06:32:55;142.57;;;19.17;;
4603;SDS011;2314;48.272;11.562;2022-09-30T06:35:22;144.77;;;19.83;;
4603;SDS011;2314;48.272;11.562;2022-09-30T06:37:51;141.40;;;18.00;;
4603;SDS011;2314;48.272;11.562;2022-09-30T06:40:19;145.37;;;20.47;;
4603;SDS011;2314;48.272;11.562;2022-09-30T06:42:46;144.27;;;20.30;;
4603;SDS011;2314;48.272;11.562;2022-09-30T06:45:15;144.60;;;19.47;;
4603;SDS011;2314;48.272;11.562;2022-09-30T06:47:43;150.17;;;21.10;;
4603;SDS011;2314;48.272;11.562;2022-09-30T06:50:12;147.40;;;22.50;;
4603;SDS011;2314;48.272;11.562;2022-09-30T06:52:39;142.27;;;19.00;;
4603;SDS011;2314;48.272;11.562;2022-09-30T06:55:06;139.60;;;18.03;;
4603;SDS011;2314;48.272;11.562;2022-09-30T06:57:34;145.53;;;18.63;;
4603;SDS011;2314;48.272;11.562;2022-09-30T07:00:01;141.07;;;19.23;;
4603;SDS011;2314;48.272;11.562;2022-09-30T07:02:31;137.97;;;17.07;;
4603;SDS011;2314;48.272;11.562;2022-09-30T07:04:59;134.70;;;14.57;;
4603;SDS011;2314;48.272;11.562;2022-09-30T07:07:28;134.37;;;15.57;;
4603;SDS011;2314;48.272;11.562;2022-09-30T07:09:58;132.60;;;14.07;;
4603;SDS011;2314;48.272;11.562;2022-09-30T07:12:26;134.17;;;15.43;;
4603;SDS011;2314;48.272;11.562;2022-09-30T07:14:53;133.47;;;14.73;;
4603;SDS011;2314;48.272;11.562;2022-09-30T07:17:21;131.73;;;13.73;;
4603;SDS011;2314;48.272;11.562;2022-09-30T07:19:50;132.30;;;13.97;;
4603;SDS011;2314;48.272;11.562;2022-09-30T07:22:17;133.30;;;13.80;;
4603;SDS011;2314;48.272;11.562;2022-09-30T07:24:54;135.93;;;13.93;;
4603;SDS011;2314;48.272;11.562;2022-09-30T07:27:22;132.17;;;14.60;;
4603;SDS011;2314;48.272;11.562;2022-09-30T07:29:50;130.00;;;12.73;;
4603;SDS011;2314;48.272;11.562;2022-09-30T07:32:18;129.47;;;12.27;;
4603;SDS011;2314;48.272;11.562;2022-09-30T07:34:47;129.87;;;12.63;;
4603;SDS011;2314;48.272;11.562;2022-09-30T07:37:16;130.80;;;12.20;;
4603;SDS011;2314;48.272;11.562;2022-09-30T07:39:46;128.37;;;11.23;;
4603;SDS011;2314;48.272;11.562;2022-09-30T07:42:15;127.50;;;11.27;;
4603;SDS011;2314;48.272;11.562;2022-09-30T07:44:46;126.80;;;11.50;;
4603;SDS011;2314;48.272;11.562;2022-09-30T07:47:15;128.20;;;11.60;;
4603;SDS011;2314;48.272;11.562;2022-09-30T07:49:43;127.80;;;11.87;;
4603;SDS011;2314;48.272;11.562;2022-09-30T07:52:11;127.57;;;11.40;;
4603;SDS011;2314;48.272;11.562;2022-09-30T07:54:40;129.10;;;10.93;;
4603;SDS011;2314;48.272;11.562;2022-09-30T07:57:08;125.17;;;9.20;;
4603;SDS011;2314;48.272;11.562;2022-09-30T07:59:36;124.70;;;9.37;;
4603;SDS011;2314;48.272;11.562;2022-09-30T08:02:05;124.47;;;9.23;;
4603;SDS011;2314;48.272;11.562;2022-09-30T08:04:36;122.30;;;7.43;;
4603;SDS011;2314;48.272;11.562;2022-09-30T08:07:03;123.90;;;8.70;;
4603;SDS011;2314;48.272;11.562;2022-09-30T08:09:30;124.30;;;9.07;;
4603;SDS011;2314;48.272;11.562;2022-09-30T08:11:59;121.57;;;6.77;;
4603;SDS011;2314;48.272;11.562;2022-09-30T08:14:28;125.25;;;7.25;;
4603;SDS011;2314;48.272;11.562;2022-09-30T08:16:56;126.57;;;8.10;;
4603;SDS011;2314;48.272;11.562;2022-09-30T08:19:24;122.97;;;8.30;;
4603;SDS011;2314;48.272;11.562;2022-09-30T08:21:52;122.53;;;7.43;;
4603;SDS011;2314;48.272;11.562;2022-09-30T08:24:20;122.20;;;7.97;;
4603;SDS011;2314;48.272;11.562;2022-09-30T08:26:48;120.87;;;7.50;;
4603;SDS011;2314;48.272;11.562;2022-09-30T08:29:17;122.70;;;7.20;;
4603;SDS011;2314;48.272;11.562;2022-09-30T08:31:44;122.43;;;7.40;;
4603;SDS011;2314;48.272;11.562;2022-09-30T08:34:11;123.60;;;8.17;;
4603;SDS011;2314;48.272;11.562;2022-09-30T08:36:39;123.00;;;8.33;;
4603;SDS011;2314;48.272;11.562;2022-09-30T08:39:06;124.47;;;10.00;;
4603;SDS011;2314;48.272;11.562;2022-09-30T08:41:47;124.73;;;9.67;;
4603;SDS011;2314;48.272;11.562;2022-09-30T08:44:40;124.23;;;9.30;;
4603;SDS011;2314;48.272;11.562;2022-09-30T08:47:13;124.67;;;9.57;;
4603;SDS011;2314;48.272;11.562;2022-09-30T08:49:58;129.73;;;8.63;;
4603;SDS011;2314;48.272;11.562;2022-09-30T08:52:37;122.07;;;7.33;;
4603;SDS011;2314;48.272;11.562;2022-09-30T08:55:09;122.67;;;7.30;;
4603;SDS011;2314;48.272;11.562;2022-09-30T08:57:47;119.60;;;6.63;;
4603;SDS011;2314;48.272;11.562;2022-09-30T09:00:17;121.40;;;7.40;;
4603;SDS011;2314;48.272;11.562;2022-09-30T09:02:47;122.00;;;7.33;;
4603;SDS011;2314;48.272;11.562;2022-09-30T09:05:22;116.47;;;5.43;;
4603;SDS011;2314;48.272;11.562;2022-09-30T09:08:03;116.70;;;5.83;;
4603;SDS011;2314;48.272;11.562;2022-09-30T09:10:40;118.33;;;6.60;;
4603;SDS011;2314;48.272;11.562;2022-09-30T09:13:15;119.30;;;6.73;;
4603;SDS011;2314;48.272;11.562;2022-09-30T09:16:01;121.37;;;6.03;;
4603;SDS011;2314;48.272;11.562;2022-09-30T09:18:40;118.87;;;5.50;;
4603;SDS011;2314;48.272;11.562;2022-09-30T09:21:19;117.27;;;5.73;;
4603;SDS011;2314;48.272;11.562;2022-09-30T09:23:49;116.90;;;5.60;;
4603;SDS011;2314;48.272;11.562;2022-09-30T09:26:20;119.57;;;4.90;;
4603;SDS011;2314;48.272;11.562;2022-09-30T09:28:51;118.00;;;5.30;;
4603;SDS011;2314;48.272;11.562;2022-09-30T09:31:32;118.00;;;5.50;;
4603;SDS011;2314;48.272;11.562;2022-09-30T09:34:00;116.83;;;5.60;;
4603;SDS011;2314;48.272;11.562;2022-09-30T09:36:38;118.83;;;5.20;;
4603;SDS011;2314;48.272;11.562;2022-09-30T09:39:33;117.37;;;5.70;;
4603;SDS011;2314;48.272;11.562;2022-09-30T09:42:27;119.57;;;5.27;;
4603;SDS011;2314;48.272;11.562;2022-09-30T09:45:14;116.67;;;4.90;;
4603;SDS011;2314;48.272;11.562;2022-09-30T09:47:54;117.20;;;5.37;;
4603;SDS011;2314;48.272;11.562;2022-09-30T09:50:25;117.67;;;5.73;;
4603;SDS011;2314;48.272;11.562;2022-09-30T09:53:04;115.77;;;5.33;;
4603;SDS011;2314;48.272;11.562;2022-09-30T09:55:54;116.37;;;5.37;;
4603;SDS011;2314;48.272;11.562;2022-09-30T09:58:24;115.87;;;5.60;;
4603;SDS011;2314;48.272;11.562;2022-09-30T10:00:52;114.97;;;5.37;;
4603;SDS011;2314;48.272;11.562;2022-09-30T10:03:37;115.17;;;5.30;;
4603;SDS011;2314;48.272;11.562;2022-09-30T10:06:05;113.93;;;4.60;;
4603;SDS011;2314;48.272;11.562;2022-09-30T10:08:34;113.70;;;4.10;;
4603;SDS011;2314;48.272;11.562;2022-09-30T10:11:04;113.37;;;4.40;;
4603;SDS011;2314;48.272;11.562;2022-09-30T10:13:39;115.70;;;4.93;;
4603;SDS011;2314;48.272;11.562;2022-09-30T10:16:21;113.53;;;4.13;;
4603;SDS011;2314;48.272;11.562;2022-09-30T10:18:55;113.17;;;4.00;;
4603;SDS011;2314;48.272;11.562;2022-09-30T10:21:23;111.97;;;4.30;;
4603;SDS011;2314;48.272;11.562;2022-09-30T10:23:52;113.77;;;4.77;;
4603;SDS011;2314;48.272;11.562;2022-09-30T10:26:22;111.50;;;3.80;;
4603;SDS011;2314;48.272;11.562;2022-09-30T10:28:52;112.90;;;3.93;;
4603;SDS011;2314;48.272;11.562;2022-09-30T10:31:21;116.50;;;3.93;;
4603;SDS011;2314;48.272;11.562;2022-09-30T10:33:53;112.50;;;3.60;;
4603;SDS011;2314;48.272;11.562;2022-09-30T10:36:28;111.90;;;3.70;;
4603;SDS011;2314;48.272;11.562;2022-09-30T10:38:58;112.67;;;3.70;;
4603;SDS011;2314;48.272;11.562;2022-09-30T10:41:29;111.20;;;3.60;;
4603;SDS011;2314;48.272;11.562;2022-09-30T10:43:58;114.00;;;4.37;;
4603;SDS011;2314;48.272;11.562;2022-09-30T10:46:28;114.87;;;3.90;;
4603;SDS011;2314;48.272;11.562;2022-09-30T10:49:06;112.60;;;3.80;;
4603;SDS011;2314;48.272;11.562;2022-09-30T10:51:36;114.17;;;4.03;;
4603;SDS011;2314;48.272;11.562;2022-09-30T10:54:04;116.50;;;4.27;;
4603;SDS011;2314;48.272;11.562;2022-09-30T10:56:39;114.50;;;4.03;;
4603;SDS011;2314;48.272;11.562;2022-09-30T10:59:14;115.20;;;4.53;;
4603;SDS011;2314;48.272;11.562;2022-09-30T11:01:53;113.27;;;4.13;;
4603;SDS011;2314;48.272;11.562;2022-09-30T11:04:28;113.87;;;4.10;;
4603;SDS011;2314;48.272;11.562;2022-09-30T11:07:10;119.00;;;3.80;;
4603;SDS011;2314;48.272;11.562;2022-09-30T11:09:45;113.87;;;3.70;;
4603;SDS011;2314;48.272;11.562;2022-09-30T11:12:22;116.37;;;4.27;;
4603;SDS011;2314;48.272;11.562;2022-09-30T11:15:01;116.17;;;3.80;;
4603;SDS011;2314;48.272;11.562;2022-09-30T11:17:38;123.33;;;4.47;;
4603;SDS011;2314;48.272;11.562;2022-09-30T11:20:18;114.23;;;3.60;;
4603;SDS011;2314;48.272;11.562;2022-09-30T11:22:51;115.57;;;4.50;;
4603;SDS011;2314;48.272;11.562;2022-09-30T11:25:26;115.37;;;3.83;;
4603;SDS011;2314;48.272;11.562;2022-09-30T11:28:14;113.50;;;3.80;;
4603;SDS011;2314;48.272;11.562;2022-09-30T11:31:03;113.07;;;3.43;;
4603;SDS011;2314;48.272;11.562;2022-09-30T11:33:42;114.30;;;4.33;;
4603;SDS011;2314;48.272;11.562;2022-09-30T11:36:27;113.20;;;3.73;;
4603;SDS011;2314;48.272;11.562;2022-09-30T11:39:05;114.43;;;4.17;;
4603;SDS011;2314;48.272;11.562;2022-09-30T11:41:55;112.07;;;3.20;;
4603;SDS011;2314;48.272;11.562;2022-09-30T11:44:31;113.90;;;3.50;;
4603;SDS011;2314;48.272;11.562;2022-09-30T11:47:05;113.07;;;3.60;;
4603;SDS011;2314;48.272;11.562;2022-09-30T11:50:05;114.97;;;3.97;;
4603;SDS011;2314;48.272;11.562;2022-09-30T11:52:52;117.10;;;4.20;;
4603;SDS011;2314;48.272;11.562;2022-09-30T11:55:31;113.37;;;3.83;;
4603;SDS011;2314;48.272;11.562;2022-09-30T11:58:16;114.40;;;3.20;;
4603;SDS011;2314;48.272;11.562;2022-09-30T12:00:48;113.23;;;3.30;;
4603;SDS011;2314;48.272;11.562;2022-09-30T12:03:32;111.97;;;2.93;;
4603;SDS011;2314;48.272;11.562;2022-09-30T12:06:04;112.63;;;2.70;;
4603;SDS011;2314;48.272;11.562;2022-09-30T12:08:41;115.47;;;3.00;;
4603;SDS011;2314;48.272;11.562;2022-09-30T12:11:15;116.17;;;3.10;;
4603;SDS011;2314;48.272;11.562;2022-09-30T12:13:48;113.67;;;3.00;;
4603;SDS011;2314;48.272;11.562;2022-09-30T12:16:21;114.20;;;2.67;;
4603;SDS011;2314;48.272;11.562;2022-09-30T12:18:52;116.87;;;3.00;;
4603;SDS011;2314;48.272;11.562;2022-09-30T12:21:23;114.57;;;2.83;;
4603;SDS011;2314;48.272;11.562;2022-09-30T12:23:59;113.60;;;3.47;;
4603;SDS011;2314;48.272;11.562;2022-09-30T12:26:35;115.90;;;2.90;;
4603;SDS011;2314;48.272;11.562;2022-09-30T12:29:04;111.40;;;2.90;;
4603;SDS011;2314;48.272;11.562;2022-09-30T12:31:59;113.60;;;3.00;;
4603;SDS011;2314;48.272;11.562;2022-09-30T12:34:49;112.27;;;3.13;;
4603;SDS011;2314;48.272;11.562;2022-09-30T12:37:35;114.10;;;2.70;;
4603;SDS011;2314;48.272;11.562;2022-09-30T12:40:21;111.90;;;2.50;;
4603;SDS011;2314;48.272;11.562;2022-09-30T12:43:07;110.83;;;2.70;;
4603;SDS011;2314;48.272;11.562;2022-09-30T12:46:13;111.37;;;2.77;;
4603;SDS011;2314;48.272;11.562;2022-09-30T12:48:47;112.87;;;3.03;;
4603;SDS011;2314;48.272;11.562;2022-09-30T12:51:20;111.73;;;2.80;;
4603;SDS011;2314;48.272;11.562;2022-09-30T12:53:52;111.40;;;2.70;;
4603;SDS011;2314;48.272;11.562;2022-09-30T12:56:29;111.10;;;2.43;;
4603;SDS011;2314;48.272;11.562;2022-09-30T12:59:01;112.00;;;2.80;;
4603;SDS011;2314;48.272;11.562;2022-09-30T13:01:29;111.60;;;2.60;;
4603;SDS011;2314;48.272;11.562;2022-09-30T13:04:17;113.77;;;2.93;;
4603;SDS011;2314;48.272;11.562;2022-09-30T13:07:08;111.90;;;2.40;;
4603;SDS011;2314;48.272;11.562;2022-09-30T13:09:59;110.47;;;2.30;;
4603;SDS011;2314;48.272;11.562;2022-09-30T13:12:54;112.33;;;2.70;;
4603;SDS011;2314;48.272;11.562;2022-09-30T13:15:47;111.07;;;2.53;;
4603;SDS011;2314;48.272;11.562;2022-09-30T13:21:24;113.70;;;2.87;;
4603;SDS011;2314;48.272;11.562;2022-09-30T13:23:52;113.20;;;2.40;;
4603;SDS011;2314;48.272;11.562;2022-09-30T13:26:34;113.33;;;2.60;;
4603;SDS011;2314;48.272;11.562;2022-09-30T13:29:30;110.80;;;1.90;;
4603;SDS011;2314;48.272;11.562;2022-09-30T13:32:09;115.43;;;2.10;;
4603;SDS011;2314;48.272;11.562;2022-09-30T13:34:47;111.90;;;2.80;;
4603;SDS011;2314;48.272;11.562;2022-09-30T13:37:32;112.13;;;2.60;;
4603;SDS011;2314;48.272;11.562;2022-09-30T13:40:04;112.70;;;2.67;;
4603;SDS011;2314;48.272;11.562;2022-09-30T13:42:49;112.23;;;2.60;;
4603;SDS011;2314;48.272;11.562;2022-09-30T13:45:22;111.60;;;2.57;;
4603;SDS011;2314;48.272;11.562;2022-09-30T13:48:02;112.47;;;2.60;;
4603;SDS011;2314;48.272;11.562;2022-09-30T13:50:36;111.57;;;2.30;;
4603;SDS011;2314;48.272;11.562;2022-09-30T13:53:11;112.17;;;2.47;;
4603;SDS011;2314;48.272;11.562;2022-09-30T13:55:52;112.07;;;2.30;;
4603;SDS011;2314;48.272;11.562;2022-09-30T14:01:49;113.23;;;2.63;;
4603;SDS011;2314;48.272;11.562;2022-09-30T14:04:43;111.70;;;2.37;;
4603;SDS011;2314;48.272;11.562;2022-09-30T14:07:28;111.00;;;2.60;;
4603;SDS011;2314;48.272;11.562;2022-09-30T14:10:12;111.00;;;2.40;;
4603;SDS011;2314;48.272;11.562;2022-09-30T14:12:58;112.03;;;2.40;;
4603;SDS011;2314;48.272;11.562;2022-09-30T14:16:03;113.60;;;2.83;;
4603;SDS011;2314;48.272;11.562;2022-09-30T14:22:07;110.63;;;2.40;;
4603;SDS011;2314;48.272;11.562;2022-09-30T14:24:37;111.63;;;2.47;;
4603;SDS011;2314;48.272;11.562;2022-09-30T14:27:10;111.27;;;2.30;;
4603;SDS011;2314;48.272;11.562;2022-09-30T14:30:03;110.93;;;2.50;;
4603;SDS011;2314;48.272;11.562;2022-09-30T14:32:39;119.63;;;2.80;;
4603;SDS011;2314;48.272;11.562;2022-09-30T14:35:13;110.47;;;2.10;;
4603;SDS011;2314;48.272;11.562;2022-09-30T14:37:44;112.17;;;2.63;;
4603;SDS011;2314;48.272;11.562;2022-09-30T14:40:15;112.53;;;2.57;;
4603;SDS011;2314;48.272;11.562;2022-09-30T14:42:49;111.67;;;2.40;;
4603;SDS011;2314;48.272;11.562;2022-09-30T14:45:18;111.77;;;2.77;;
4603;SDS011;2314;48.272;11.562;2022-09-30T14:47:51;113.10;;;2.67;;
4603;SDS011;2314;48.272;11.562;2022-09-30T14:50:24;111.50;;;2.57;;
4603;SDS011;2314;48.272;11.562;2022-09-30T14:52:56;113.30;;;2.90;;
4603;SDS011;2314;48.272;11.562;2022-09-30T14:55:26;112.50;;;2.47;;
4603;SDS011;2314;48.272;11.562;2022-09-30T14:58:11;114.17;;;2.93;;
4603;SDS011;2314;48.272;11.562;2022-09-30T15:00:47;113.67;;;2.83;;
4603;SDS011;2314;48.272;11.562;2022-09-30T15:03:23;112.90;;;2.63;;
4603;SDS011;2314;48.272;11.562;2022-09-30T15:05:52;113.47;;;2.30;;
4603;SDS011;2314;48.272;11.562;2022-09-30T15:08:20;115.77;;;2.43;;
4603;SDS011;2314;48.272;11.562;2022-09-30T15:10:48;112.57;;;2.30;;
4603;SDS011;2314;48.272;11.562;2022-09-30T15:13:18;113.77;;;2.60;;
4603;SDS011;2314;48.272;11.562;2022-09-30T15:15:53;113.87;;;2.30;;
4603;SDS011;2314;48.272;11.562;2022-09-30T15:18:27;113.17;;;2.30;;